Time;durP1;ratioP1;P1;durP2;ratioP2;P2;SDS_P1;SDS_P2;PMS_P1;PMS_P2;Temp;Humidity;BMP_temperature;BMP_pressure;BME280_temperature;BME280_humidity;BME280_pressure;Samples;Min_cycle;Max_cycle;Signal;HPM_P1;HPM_P2
2021/08/16 11:19:00;;;;;;;8.00;1.50;;;;;;;;;;4929608;29;20668;-82
2021/08/16 11:21:30;;;;;;;6.80;1.73;;;;;;;;;;4925720;29;20305;-83
2021/08/16 11:51:23;;;;;;;3.70;1.30;;;;;;;;;;4876627;29;20544;-83
2021/08/16 11:53:52;;;;;;;8.30;1.80;;;;;;;;;;4939699;29;20211;-83
2021/08/16 11:56:19;;;;;;;6.97;1.63;;;;;;;;;;4933873;29;20211;-83
2021/08/16 11:58:47;;;;;;;7.57;1.50;;;;;;;;;;4926362;29;20235;-83
2021/08/16 12:01:14;;;;;;;3.70;1.60;;;;;;;;;;4926194;29;20220;-83
2021/08/16 12:03:42;;;;;;;7.40;1.63;;;;;;;;;;4931016;29;20471;-83
2021/08/16 12:06:12;;;;;;;3.17;1.30;;;;;;;;;;4933371;29;20223;-83
2021/08/16 12:08:41;;;;;;;5.20;1.50;;;;;;;;;;4926660;29;21040;-83
2021/08/16 12:11:12;;;;;;;7.53;1.67;;;;;;;;;;4931044;29;20270;-83
2021/08/16 12:13:39;;;;;;;4.83;1.60;;;;;;;;;;4931406;29;20668;-82
2021/08/16 12:16:07;;;;;;;5.67;1.60;;;;;;;;;;4928165;29;20293;-82
2021/08/16 12:18:34;;;;;;;5.37;1.70;;;;;;;;;;4928068;29;20305;-83
2021/08/16 12:21:02;;;;;;;4.87;1.50;;;;;;;;;;4933177;29;20219;-83
2021/08/16 12:23:30;;;;;;;5.17;1.47;;;;;;;;;;4929010;29;20220;-83
2021/08/16 12:26:01;;;;;;;4.10;1.77;;;;;;;;;;4934538;29;20286;-83
2021/08/16 12:28:40;;;;;;;6.97;2.13;;;;;;;;;;4929869;29;20715;-82
2021/08/16 12:31:18;;;;;;;4.90;1.80;;;;;;;;;;4931077;29;20215;-83
2021/08/16 12:33:59;;;;;;;5.57;1.47;;;;;;;;;;4926496;29;20249;-83
2021/08/16 12:36:29;;;;;;;5.50;1.70;;;;;;;;;;4934605;29;20214;-83
2021/08/16 12:38:58;;;;;;;3.03;1.40;;;;;;;;;;4936607;28;20313;-83
2021/08/16 12:41:26;;;;;;;4.83;1.50;;;;;;;;;;4930220;29;20295;-83
2021/08/16 12:43:54;;;;;;;2.80;1.30;;;;;;;;;;4935701;29;20218;-83
2021/08/16 12:46:28;;;;;;;3.87;1.50;;;;;;;;;;4934469;29;20239;-83
2021/08/16 12:48:56;;;;;;;4.90;1.53;;;;;;;;;;4933750;29;20617;-83
2021/08/16 12:51:24;;;;;;;5.17;1.40;;;;;;;;;;4934408;29;20210;-83
2021/08/16 12:53:51;;;;;;;5.17;1.57;;;;;;;;;;4929505;29;20298;-83
2021/08/16 12:56:19;;;;;;;4.13;1.77;;;;;;;;;;4931801;29;20212;-83
2021/08/16 12:58:46;;;;;;;7.60;1.37;;;;;;;;;;4924081;29;20239;-83
2021/08/16 13:01:20;;;;;;;3.90;1.90;;;;;;;;;;4932342;29;20294;-83
2021/08/16 13:03:47;;;;;;;4.80;2.07;;;;;;;;;;4929623;29;20271;-83
2021/08/16 13:06:14;;;;;;;5.90;1.60;;;;;;;;;;4927396;29;20256;-83
2021/08/16 13:08:42;;;;;;;4.63;1.73;;;;;;;;;;4931512;29;20235;-83
2021/08/16 13:11:11;;;;;;;7.90;2.00;;;;;;;;;;4921416;29;21148;-82
2021/08/16 13:13:38;;;;;;;5.67;1.87;;;;;;;;;;4921735;29;20227;-81
2021/08/16 13:16:05;;;;;;;5.97;2.07;;;;;;;;;;4925276;29;20301;-83
2021/08/16 13:18:34;;;;;;;7.30;2.10;;;;;;;;;;4926563;29;20271;-83
2021/08/16 13:21:01;;;;;;;2.67;1.70;;;;;;;;;;4935046;29;20626;-84
2021/08/16 13:23:29;;;;;;;4.87;1.50;;;;;;;;;;4930313;29;20653;-84
2021/08/16 13:25:56;;;;;;;9.47;2.00;;;;;;;;;;4938127;29;20207;-81
2021/08/16 13:28:25;;;;;;;3.47;1.67;;;;;;;;;;4938422;29;20268;-81
2021/08/16 13:30:52;;;;;;;4.07;2.00;;;;;;;;;;4936807;29;20727;-83
2021/08/16 13:33:19;;;;;;;4.77;2.07;;;;;;;;;;4928416;29;20318;-82
2021/08/16 13:35:48;;;;;;;3.80;1.50;;;;;;;;;;4926913;29;20208;-82
2021/08/16 13:38:15;;;;;;;3.13;1.53;;;;;;;;;;4935334;29;20325;-82
2021/08/16 13:40:42;;;;;;;2.63;1.20;;;;;;;;;;4940649;29;20234;-82
2021/08/16 13:43:09;;;;;;;2.93;1.30;;;;;;;;;;4933437;29;20289;-82
2021/08/16 13:45:37;;;;;;;2.43;1.20;;;;;;;;;;4929482;29;20230;-82
2021/08/16 13:48:04;;;;;;;1.50;1.10;;;;;;;;;;4929268;29;20329;-83
2021/08/16 13:50:31;;;;;;;2.90;1.00;;;;;;;;;;4929790;29;20646;-82
2021/08/16 13:53:01;;;;;;;1.50;0.80;;;;;;;;;;4926248;29;20283;-82
2021/08/16 13:55:30;;;;;;;1.00;0.70;;;;;;;;;;4933297;29;20620;-82
2021/08/16 13:57:57;;;;;;;1.67;0.70;;;;;;;;;;4933092;29;20558;-82
2021/08/16 14:00:25;;;;;;;0.73;0.50;;;;;;;;;;4930167;29;20203;-82
2021/08/16 14:02:52;;;;;;;0.50;0.50;;;;;;;;;;4927071;29;20236;-82
2021/08/16 14:05:19;;;;;;;1.67;0.60;;;;;;;;;;4929585;29;20223;-82
2021/08/16 14:07:46;;;;;;;0.53;0.50;;;;;;;;;;4930160;29;20626;-82
2021/08/16 14:10:15;;;;;;;2.67;0.60;;;;;;;;;;4929694;29;20618;-83
2021/08/16 14:12:43;;;;;;;3.70;0.60;;;;;;;;;;4930544;29;20230;-83
2021/08/16 14:15:11;;;;;;;1.43;0.50;;;;;;;;;;4932976;29;20244;-83
2021/08/16 14:17:38;;;;;;;0.40;0.40;;;;;;;;;;4927780;29;20216;-82
2021/08/16 14:20:07;;;;;;;0.80;0.40;;;;;;;;;;4926946;29;20321;-82
2021/08/16 14:22:35;;;;;;;0.40;0.30;;;;;;;;;;4925768;29;20201;-82
2021/08/16 14:25:02;;;;;;;0.70;0.40;;;;;;;;;;4927380;29;20207;-82
2021/08/16 14:27:30;;;;;;;2.43;1.33;;;;;;;;;;4930186;29;20298;-82
2021/08/16 14:29:58;;;;;;;3.47;2.07;;;;;;;;;;4929444;29;20287;-82
2021/08/16 14:32:25;;;;;;;3.93;1.83;;;;;;;;;;4935103;29;20243;-83
2021/08/16 14:34:52;;;;;;;4.43;2.17;;;;;;;;;;4934428;29;20203;-82
2021/08/16 14:37:19;;;;;;;4.53;2.27;;;;;;;;;;4934353;29;20691;-82
2021/08/16 14:39:46;;;;;;;3.33;2.17;;;;;;;;;;4926800;29;20269;-82
2021/08/16 14:42:13;;;;;;;5.10;2.23;;;;;;;;;;4933945;29;20242;-83
2021/08/16 14:44:42;;;;;;;2.97;2.10;;;;;;;;;;4930709;29;21164;-82
2021/08/16 14:47:09;;;;;;;4.80;2.53;;;;;;;;;;4935589;29;20334;-83
2021/08/16 14:49:36;;;;;;;7.23;2.90;;;;;;;;;;4929624;29;20282;-83
2021/08/16 14:52:04;;;;;;;4.47;2.80;;;;;;;;;;4934134;29;20282;-83
2021/08/16 14:54:31;;;;;;;4.73;2.87;;;;;;;;;;4927834;29;20275;-82
2021/08/16 14:56:59;;;;;;;8.40;3.83;;;;;;;;;;4932873;29;20684;-82
2021/08/16 14:59:26;;;;;;;12.30;4.60;;;;;;;;;;4931190;29;20263;-82
2021/08/16 15:01:55;;;;;;;12.17;5.37;;;;;;;;;;4943817;29;20226;-81
2021/08/16 15:04:22;;;;;;;17.03;5.93;;;;;;;;;;4949396;29;20219;-83
2021/08/16 15:06:49;;;;;;;12.10;4.93;;;;;;;;;;4945949;29;20446;-82
2021/08/16 15:09:16;;;;;;;10.17;5.23;;;;;;;;;;4935609;29;20258;-82
2021/08/16 15:11:44;;;;;;;8.87;5.30;;;;;;;;;;4928928;29;20243;-82
2021/08/16 15:14:11;;;;;;;15.13;6.00;;;;;;;;;;4938028;29;20239;-83
2021/08/16 15:16:39;;;;;;;18.53;6.63;;;;;;;;;;4936383;29;20294;-83
2021/08/16 15:19:07;;;;;;;9.97;5.47;;;;;;;;;;4934559;29;20294;-81
2021/08/16 15:21:34;;;;;;;11.50;5.63;;;;;;;;;;4926932;29;20233;-83
2021/08/16 15:24:01;;;;;;;12.57;6.13;;;;;;;;;;4936521;29;20274;-83
2021/08/16 15:26:29;;;;;;;15.83;6.40;;;;;;;;;;4934657;29;20231;-83
2021/08/16 15:28:56;;;;;;;12.93;6.00;;;;;;;;;;4937090;29;20597;-83
2021/08/16 15:31:24;;;;;;;11.33;4.90;;;;;;;;;;4933939;29;20698;-83
2021/08/16 15:33:52;;;;;;;10.83;6.10;;;;;;;;;;4936944;29;20250;-84
2021/08/16 15:36:20;;;;;;;9.80;4.97;;;;;;;;;;4937751;29;20207;-83
2021/08/16 15:38:48;;;;;;;13.33;5.93;;;;;;;;;;4930857;29;20263;-83
2021/08/16 15:41:15;;;;;;;10.43;5.57;;;;;;;;;;4933899;29;20806;-83
2021/08/16 15:43:45;;;;;;;12.37;5.70;;;;;;;;;;4937102;29;20306;-83
2021/08/16 15:46:13;;;;;;;11.97;6.47;;;;;;;;;;4936275;29;20215;-83
2021/08/16 15:48:40;;;;;;;17.10;7.27;;;;;;;;;;4935327;29;20230;-83
2021/08/16 15:51:07;;;;;;;13.40;6.03;;;;;;;;;;4939809;29;20625;-83
2021/08/16 15:53:36;;;;;;;19.03;7.33;;;;;;;;;;4936451;29;20325;-83
2021/08/16 15:56:03;;;;;;;12.67;7.30;;;;;;;;;;4934761;29;20199;-82
2021/08/16 15:58:30;;;;;;;18.27;7.80;;;;;;;;;;4937920;28;20231;-83
2021/08/16 16:00:57;;;;;;;18.07;8.30;;;;;;;;;;4942224;29;20215;-83
2021/08/16 16:03:25;;;;;;;18.10;8.70;;;;;;;;;;4934371;29;20199;-83
2021/08/16 16:05:53;;;;;;;19.10;9.20;;;;;;;;;;4933137;29;20262;-83
2021/08/16 16:08:20;;;;;;;17.57;9.27;;;;;;;;;;4935927;29;20638;-82
2021/08/16 16:10:49;;;;;;;16.27;8.00;;;;;;;;;;4938242;29;20697;-83
2021/08/16 16:13:17;;;;;;;13.13;7.00;;;;;;;;;;4937335;29;20332;-83
2021/08/16 16:15:44;;;;;;;16.87;8.60;;;;;;;;;;4937758;29;20211;-83
2021/08/16 16:18:12;;;;;;;17.17;8.13;;;;;;;;;;4935227;29;20230;-83
2021/08/16 16:20:39;;;;;;;18.03;9.23;;;;;;;;;;4935731;29;20550;-83
2021/08/16 16:23:07;;;;;;;15.07;8.60;;;;;;;;;;4939080;29;20235;-83
2021/08/16 23:06:40;;;;;;;21.30;8.97;;;;;;;;;;4943621;28;20695;-76
2021/08/16 23:09:07;;;;;;;21.80;8.33;;;;;;;;;;4940729;28;20216;-76
2021/08/16 23:11:34;;;;;;;16.23;7.80;;;;;;;;;;4940782;28;20210;-76
2021/08/16 23:14:02;;;;;;;16.63;7.90;;;;;;;;;;4942727;28;20234;-77
2021/08/16 23:16:30;;;;;;;16.80;7.73;;;;;;;;;;4940160;28;20755;-77
2021/08/16 23:18:58;;;;;;;17.03;7.70;;;;;;;;;;4942499;28;20204;-77
2021/08/16 23:21:25;;;;;;;20.73;7.80;;;;;;;;;;4941356;28;20684;-76
2021/08/16 23:23:53;;;;;;;21.80;7.90;;;;;;;;;;4942186;28;20242;-77
2021/08/16 23:26:21;;;;;;;22.43;7.17;;;;;;;;;;4943069;28;20242;-76
2021/08/16 23:28:48;;;;;;;21.17;7.57;;;;;;;;;;4944095;28;20306;-76
2021/08/16 23:31:15;;;;;;;18.83;7.30;;;;;;;;;;4944632;28;20740;-76
2021/08/16 23:33:42;;;;;;;16.27;6.77;;;;;;;;;;4944244;28;20317;-76
2021/08/16 23:36:09;;;;;;;18.63;6.70;;;;;;;;;;4944393;28;20297;-77
2021/08/16 23:38:36;;;;;;;18.50;6.17;;;;;;;;;;4942519;28;20215;-77
2021/08/16 23:41:06;;;;;;;12.13;5.10;;;;;;;;;;4940779;28;20214;-76
2021/08/16 23:43:33;;;;;;;18.47;5.80;;;;;;;;;;4941967;28;20653;-76
2021/08/16 23:46:00;;;;;;;10.67;5.30;;;;;;;;;;4945061;28;20214;-78
2021/08/16 23:48:27;;;;;;;13.37;4.50;;;;;;;;;;4962553;28;20306;-78
2021/08/16 23:50:54;;;;;;;17.87;4.87;;;;;;;;;;4943251;28;20213;-77
2021/08/16 23:53:22;;;;;;;11.80;4.20;;;;;;;;;;4943533;28;20334;-77
2021/08/16 23:55:49;;;;;;;11.60;3.97;;;;;;;;;;4943483;28;20234;-78
2021/08/16 23:58:18;;;;;;;12.30;4.00;;;;;;;;;;4941650;28;20297;-77
